createdAt,value
2017-06-22T00:00:03.801Z,976.32
2017-06-22T00:01:06.191Z,976.32
2017-06-22T00:02:08.563Z,976.30
2017-06-22T00:03:10.911Z,976.28
2017-06-22T00:04:13.899Z,976.34
2017-06-22T00:05:16.257Z,976.31
2017-06-22T00:06:18.682Z,976.29
2017-06-22T00:07:20.996Z,976.36
2017-06-22T00:08:23.358Z,976.34
2017-06-22T00:09:26.352Z,976.32
2017-06-22T00:10:28.726Z,976.33
2017-06-22T00:11:31.085Z,976.34
2017-06-22T00:12:33.464Z,976.34
2017-06-22T00:13:35.830Z,976.35
2017-06-22T00:14:39.113Z,976.37
2017-06-22T00:15:41.687Z,976.38
2017-06-22T00:16:44.051Z,976.39
2017-06-22T00:17:46.436Z,976.37
2017-06-22T00:18:48.802Z,976.40
2017-06-22T00:19:51.866Z,976.38
2017-06-22T00:20:54.243Z,976.38
2017-06-22T00:21:56.609Z,976.38
2017-06-22T00:22:58.995Z,976.39
2017-06-22T00:24:01.349Z,976.39
2017-06-22T00:25:04.462Z,976.38
2017-06-22T00:26:06.822Z,976.43
2017-06-22T00:27:09.219Z,976.44
2017-06-22T00:28:11.577Z,976.41
2017-06-22T00:29:13.953Z,976.42
2017-06-22T00:30:17.135Z,976.47
2017-06-22T00:31:19.490Z,976.48
2017-06-22T00:32:21.860Z,976.49
2017-06-22T00:33:24.212Z,976.49
2017-06-22T00:34:26.567Z,976.51
2017-06-22T00:35:29.657Z,976.52
2017-06-22T00:36:32.021Z,976.54
2017-06-22T00:37:34.382Z,976.55
2017-06-22T00:38:36.736Z,976.55
2017-06-22T00:39:39.089Z,976.56
2017-06-22T00:40:42.051Z,976.61
2017-06-22T00:41:44.403Z,976.64
2017-06-22T00:42:46.770Z,976.63
2017-06-22T00:43:49.133Z,976.64
2017-06-22T00:44:51.495Z,976.67
2017-06-22T00:45:54.568Z,976.66
2017-06-22T00:46:56.927Z,976.66
2017-06-22T00:47:59.299Z,976.64
2017-06-22T00:49:01.667Z,976.65
2017-06-22T00:50:04.013Z,976.63
2017-06-22T00:51:07.101Z,976.70
2017-06-22T00:52:09.446Z,976.74
2017-06-22T00:53:11.831Z,976.70
2017-06-22T00:54:14.184Z,976.73
2017-06-22T00:55:16.550Z,976.72
2017-06-22T00:56:19.522Z,976.74
2017-06-22T00:57:21.871Z,976.75
2017-06-22T00:58:24.244Z,976.75
2017-06-22T00:59:26.824Z,976.76
2017-06-22T01:00:29.192Z,976.77
2017-06-22T01:01:32.150Z,976.78
2017-06-22T01:02:34.506Z,976.79
2017-06-22T01:03:36.887Z,976.79
2017-06-22T01:04:39.280Z,976.81
2017-06-22T01:05:41.644Z,976.80
2017-06-22T01:06:44.746Z,976.82
2017-06-22T01:07:47.109Z,976.78
2017-06-22T01:08:49.474Z,976.77
2017-06-22T01:09:51.825Z,976.79
2017-06-22T01:10:54.207Z,976.77
2017-06-22T01:11:57.336Z,976.79
2017-06-22T01:12:59.719Z,976.81
2017-06-22T01:14:02.130Z,976.82
2017-06-22T01:15:04.474Z,976.84
2017-06-22T01:16:06.833Z,976.87
2017-06-22T01:17:09.787Z,976.84
2017-06-22T01:18:12.144Z,976.83
2017-06-22T01:19:14.502Z,976.82
2017-06-22T01:20:16.882Z,976.78
2017-06-22T01:21:19.245Z,976.83
2017-06-22T01:22:22.237Z,976.85
2017-06-22T01:23:24.609Z,976.85
2017-06-22T01:24:27.005Z,976.87
2017-06-22T01:25:29.394Z,976.93
2017-06-22T01:26:31.746Z,976.92
2017-06-22T01:27:34.865Z,976.95
2017-06-22T01:28:37.227Z,977.00
2017-06-22T01:29:39.589Z,976.96
2017-06-22T01:30:41.976Z,976.96
2017-06-22T01:31:44.336Z,976.95
2017-06-22T01:32:47.245Z,976.94
2017-06-22T01:33:49.612Z,977.00
2017-06-22T01:34:51.979Z,976.96
2017-06-22T01:35:54.345Z,976.99
2017-06-22T01:36:56.723Z,977.01
2017-06-22T01:37:59.704Z,977.02
2017-06-22T01:39:02.088Z,977.02
2017-06-22T01:40:04.423Z,977.02
2017-06-22T01:41:06.771Z,977.03
2017-06-22T01:42:09.142Z,977.04
2017-06-22T01:43:12.051Z,977.05
2017-06-22T01:44:14.410Z,977.06
2017-06-22T01:45:17.014Z,977.11
2017-06-22T01:46:19.391Z,977.09
2017-06-22T01:47:21.743Z,977.12
2017-06-22T01:48:24.850Z,977.12
2017-06-22T01:49:27.236Z,977.16
2017-06-22T01:50:29.608Z,977.16
2017-06-22T01:51:31.968Z,977.17
2017-06-22T01:52:34.342Z,977.18
2017-06-22T01:53:37.476Z,977.12
2017-06-22T01:54:41.036Z,977.17
2017-06-22T01:55:43.398Z,977.18
2017-06-22T01:56:45.746Z,977.21
2017-06-22T01:57:48.102Z,977.26
2017-06-22T01:58:51.169Z,977.23
2017-06-22T01:59:53.566Z,977.31
2017-06-22T02:00:55.924Z,977.28
2017-06-22T02:01:58.309Z,977.33
2017-06-22T02:03:00.670Z,977.33
2017-06-22T02:04:03.734Z,977.35
2017-06-22T02:05:06.091Z,977.35
2017-06-22T02:06:08.449Z,977.37
2017-06-22T02:07:10.820Z,977.41
2017-06-22T02:08:13.193Z,977.43
2017-06-22T02:09:16.154Z,977.41
2017-06-22T02:10:18.524Z,977.44
2017-06-22T02:11:20.912Z,977.46
2017-06-22T02:12:23.292Z,977.46
2017-06-22T02:13:25.681Z,977.48
2017-06-22T02:14:28.786Z,977.50
2017-06-22T02:15:31.147Z,977.47
2017-06-22T02:16:33.533Z,977.46
2017-06-22T02:17:35.896Z,977.47
2017-06-22T02:18:38.275Z,977.49
2017-06-22T02:19:41.221Z,977.46
2017-06-22T02:20:43.588Z,977.46
2017-06-22T02:21:45.957Z,977.50
2017-06-22T02:22:48.324Z,977.47
2017-06-22T02:23:50.683Z,977.46
2017-06-22T02:24:53.791Z,977.47
2017-06-22T02:25:56.147Z,977.45
2017-06-22T02:26:58.517Z,977.51
2017-06-22T02:28:00.896Z,977.44
2017-06-22T02:29:03.259Z,977.46
2017-06-22T02:30:06.460Z,977.49
2017-06-22T02:31:08.827Z,977.47
2017-06-22T02:32:11.199Z,977.50
2017-06-22T02:33:13.582Z,977.49
2017-06-22T02:34:15.935Z,977.54
2017-06-22T02:35:19.060Z,977.54
2017-06-22T02:36:21.426Z,977.56
2017-06-22T02:37:23.799Z,977.58
2017-06-22T02:38:26.154Z,977.57
2017-06-22T02:39:28.537Z,977.60
2017-06-22T02:40:31.621Z,977.59
2017-06-22T02:41:33.975Z,977.56
2017-06-22T02:42:36.368Z,977.62
2017-06-22T02:43:38.745Z,977.62
2017-06-22T02:44:41.132Z,977.61
2017-06-22T02:45:44.093Z,977.58
2017-06-22T02:46:46.486Z,977.63
2017-06-22T02:47:48.831Z,977.66
2017-06-22T02:48:51.221Z,977.62
2017-06-22T02:49:53.589Z,977.71
2017-06-22T02:50:56.561Z,977.72
2017-06-22T02:51:58.921Z,977.70
2017-06-22T02:53:01.305Z,977.71
2017-06-22T02:54:03.697Z,977.68
2017-06-22T02:55:06.079Z,977.68
2017-06-22T02:56:10.941Z,977.67
2017-06-22T02:57:13.299Z,977.66
2017-06-22T02:58:15.669Z,977.69
2017-06-22T02:59:18.026Z,977.67
2017-06-22T03:00:20.616Z,977.68
2017-06-22T03:01:23.571Z,977.71
2017-06-22T03:02:25.933Z,977.71
2017-06-22T03:03:28.322Z,977.69
2017-06-22T03:04:30.671Z,977.68
2017-06-22T03:05:33.037Z,977.68
2017-06-22T03:06:36.147Z,977.70
2017-06-22T03:07:38.545Z,977.75
2017-06-22T03:08:40.930Z,977.74
2017-06-22T03:09:43.296Z,977.75
2017-06-22T03:10:46.849Z,977.80
2017-06-22T03:11:49.819Z,977.83
2017-06-22T03:12:52.185Z,977.74
2017-06-22T03:13:54.560Z,977.77
2017-06-22T03:14:56.921Z,977.80
2017-06-22T03:15:59.309Z,977.79
2017-06-22T03:17:02.386Z,977.82
2017-06-22T03:18:04.765Z,977.73
2017-06-22T03:19:07.153Z,977.75
2017-06-22T03:20:09.516Z,977.82
2017-06-22T03:21:11.905Z,977.79
2017-06-22T03:22:14.971Z,977.82
2017-06-22T03:23:17.349Z,977.81
2017-06-22T03:24:19.725Z,977.83
2017-06-22T03:25:22.083Z,977.82
2017-06-22T03:26:24.488Z,977.81
2017-06-22T03:27:27.574Z,977.78
2017-06-22T03:28:29.958Z,977.78
2017-06-22T03:29:32.340Z,977.80
2017-06-22T03:30:34.704Z,977.77
2017-06-22T03:31:37.073Z,977.81
2017-06-22T03:32:40.161Z,977.76
2017-06-22T03:33:42.556Z,977.77
2017-06-22T03:34:44.902Z,977.81
2017-06-22T03:35:47.274Z,977.75
2017-06-22T03:36:49.623Z,977.74
2017-06-22T03:37:52.768Z,977.76
2017-06-22T03:38:55.130Z,977.70
2017-06-22T03:39:57.701Z,977.73
2017-06-22T03:41:00.066Z,977.70
2017-06-22T03:42:02.445Z,977.72
2017-06-22T03:43:05.548Z,977.73
2017-06-22T03:44:07.931Z,977.65
2017-06-22T03:45:10.292Z,977.72
2017-06-22T03:46:12.652Z,977.73
2017-06-22T03:47:15.022Z,977.77
2017-06-22T03:48:18.101Z,977.72
2017-06-22T03:49:20.465Z,977.71
2017-06-22T03:50:22.864Z,977.71
2017-06-22T03:51:25.241Z,977.74
2017-06-22T03:52:27.610Z,977.71
2017-06-22T03:53:30.687Z,977.70
2017-06-22T03:54:33.049Z,977.68
2017-06-22T03:55:35.432Z,977.70
2017-06-22T03:56:37.780Z,977.72
2017-06-22T03:57:40.152Z,977.70
2017-06-22T03:58:43.138Z,977.70
2017-06-22T03:59:45.518Z,977.67
2017-06-22T04:00:47.884Z,977.69
2017-06-22T04:01:50.240Z,977.65
2017-06-22T04:02:52.605Z,977.66
2017-06-22T04:03:55.676Z,977.66
2017-06-22T04:04:58.028Z,977.60
2017-06-22T04:06:00.406Z,977.63
2017-06-22T04:07:02.791Z,977.61
2017-06-22T04:08:05.154Z,977.58
2017-06-22T04:09:08.217Z,977.57
2017-06-22T04:10:10.570Z,977.62
2017-06-22T04:11:13.130Z,977.58
2017-06-22T04:12:15.487Z,977.65
2017-06-22T04:13:19.047Z,977.63
2017-06-22T04:14:22.112Z,977.63
2017-06-22T04:15:24.686Z,977.65
2017-06-22T04:16:27.036Z,977.67
2017-06-22T04:17:29.414Z,977.63
2017-06-22T04:18:31.963Z,977.62
2017-06-22T04:19:35.076Z,977.63
2017-06-22T04:20:37.425Z,977.69
2017-06-22T04:21:39.779Z,977.67
2017-06-22T04:22:42.127Z,977.64
2017-06-22T04:23:44.495Z,977.62
2017-06-22T04:24:47.657Z,977.70
2017-06-22T04:25:50.015Z,977.65
2017-06-22T04:26:52.373Z,977.66
2017-06-22T04:27:54.729Z,977.71
2017-06-22T04:28:57.085Z,977.65
2017-06-22T04:31:04.505Z,977.70
2017-06-22T04:32:06.860Z,977.64
2017-06-22T04:33:09.212Z,977.66
2017-06-22T04:34:11.572Z,977.69
2017-06-22T04:35:14.646Z,977.69
2017-06-22T04:36:17.015Z,977.68
2017-06-22T04:37:19.364Z,977.65
2017-06-22T04:38:21.734Z,977.70
2017-06-22T04:39:24.092Z,977.67
2017-06-22T04:40:27.151Z,977.72
2017-06-22T04:41:29.505Z,977.72
2017-06-22T04:42:31.870Z,977.74
2017-06-22T04:43:34.222Z,977.70
2017-06-22T04:44:36.576Z,977.73
2017-06-22T04:45:39.832Z,977.70
2017-06-22T04:46:42.185Z,977.72
2017-06-22T04:47:44.546Z,977.67
2017-06-22T04:48:46.910Z,977.75
2017-06-22T04:49:49.252Z,977.73
2017-06-22T04:50:52.322Z,977.69
2017-06-22T04:51:54.670Z,977.71
2017-06-22T04:52:57.020Z,977.72
2017-06-22T04:53:59.368Z,977.66
2017-06-22T04:55:01.731Z,977.73
2017-06-22T04:56:04.789Z,977.72
2017-06-22T04:57:07.142Z,977.71
2017-06-22T04:58:09.497Z,977.75
2017-06-22T04:59:11.854Z,977.72
2017-06-22T05:00:14.215Z,977.80
2017-06-22T05:01:17.278Z,977.76
2017-06-22T05:02:19.847Z,977.76
2017-06-22T05:03:22.221Z,977.73
2017-06-22T05:04:24.587Z,977.74
2017-06-22T05:05:26.941Z,977.76
2017-06-22T05:06:31.821Z,977.73
2017-06-22T05:07:34.160Z,977.74
2017-06-22T05:08:36.523Z,977.78
2017-06-22T05:09:38.883Z,977.77
2017-06-22T05:10:41.237Z,977.78
2017-06-22T05:11:44.293Z,977.77
2017-06-22T05:12:46.650Z,977.77
2017-06-22T05:13:49.016Z,977.78
2017-06-22T05:14:51.379Z,977.73
2017-06-22T05:15:53.729Z,977.72
2017-06-22T05:16:56.680Z,977.71
2017-06-22T05:17:59.034Z,977.74
2017-06-22T05:19:01.398Z,977.71
2017-06-22T05:20:03.744Z,977.75
2017-06-22T05:21:06.112Z,977.77
2017-06-22T05:22:09.168Z,977.79
2017-06-22T05:23:11.525Z,977.75
2017-06-22T05:24:14.104Z,977.75
2017-06-22T05:25:16.446Z,977.72
2017-06-22T05:26:19.021Z,977.76
2017-06-22T05:27:22.084Z,977.73
2017-06-22T05:28:24.435Z,977.71
2017-06-22T05:29:26.791Z,977.70
2017-06-22T05:30:29.149Z,977.72
2017-06-22T05:31:31.498Z,977.71
2017-06-22T05:32:34.557Z,977.69
2017-06-22T05:33:37.113Z,977.67
2017-06-22T05:34:39.477Z,977.67
2017-06-22T05:35:41.844Z,977.64
2017-06-22T05:36:44.197Z,977.68
2017-06-22T05:37:47.246Z,977.65
2017-06-22T05:38:49.604Z,977.61
2017-06-22T05:39:51.962Z,977.65
2017-06-22T05:40:54.308Z,977.61
2017-06-22T05:41:56.667Z,977.58
2017-06-22T05:42:59.621Z,977.58
2017-06-22T05:44:01.982Z,977.58
2017-06-22T05:45:04.334Z,977.57
2017-06-22T05:46:06.693Z,977.54
2017-06-22T05:47:09.062Z,977.49
2017-06-22T05:48:12.027Z,977.47
2017-06-22T05:49:14.388Z,977.49
2017-06-22T05:50:16.747Z,977.45
2017-06-22T05:51:19.105Z,977.46
2017-06-22T05:52:21.462Z,977.44
2017-06-22T05:53:24.509Z,977.42
2017-06-22T05:54:26.860Z,977.43
2017-06-22T05:55:29.219Z,977.42
2017-06-22T05:56:31.584Z,977.41
2017-06-22T05:57:33.929Z,977.40
2017-06-22T05:58:37.190Z,977.40
2017-06-22T05:59:39.547Z,977.37
2017-06-22T06:00:41.901Z,977.39
2017-06-22T06:01:44.260Z,977.38
2017-06-22T06:02:46.616Z,977.38
2017-06-22T06:03:49.714Z,977.36
2017-06-22T06:04:52.070Z,977.36
2017-06-22T06:05:54.428Z,977.36
2017-06-22T06:06:56.771Z,977.34
2017-06-22T06:07:59.124Z,977.35
2017-06-22T06:09:02.079Z,977.36
2017-06-22T06:10:04.635Z,977.37
2017-06-22T06:11:06.987Z,977.36
2017-06-22T06:12:09.350Z,977.35
2017-06-22T06:13:11.710Z,977.35
2017-06-22T06:14:14.766Z,977.33
2017-06-22T06:15:17.116Z,977.37
2017-06-22T06:16:19.472Z,977.38
2017-06-22T06:17:21.832Z,977.34
2017-06-22T06:18:24.201Z,977.34
2017-06-22T06:19:27.400Z,977.30
2017-06-22T06:20:29.757Z,977.33
2017-06-22T06:21:32.111Z,977.29
2017-06-22T06:22:34.458Z,977.27
2017-06-22T06:23:36.817Z,977.29
2017-06-22T06:24:39.771Z,977.27
2017-06-22T06:25:42.126Z,977.30
2017-06-22T06:26:44.466Z,977.31
2017-06-22T06:27:46.825Z,977.28
2017-06-22T06:28:49.168Z,977.28
2017-06-22T06:29:52.123Z,977.24
2017-06-22T06:30:54.480Z,977.22
2017-06-22T06:31:56.839Z,977.24
2017-06-22T06:32:59.189Z,977.20
2017-06-22T06:34:01.545Z,977.17
2017-06-22T06:35:04.499Z,977.18
2017-06-22T06:36:06.854Z,977.14
2017-06-22T06:37:09.210Z,977.13
2017-06-22T06:38:11.561Z,977.12
2017-06-22T06:39:13.911Z,977.11
2017-06-22T06:40:16.858Z,977.09
2017-06-22T06:41:19.212Z,977.11
2017-06-22T06:42:21.568Z,977.07
2017-06-22T06:43:23.914Z,977.06
2017-06-22T06:44:26.274Z,977.04
2017-06-22T06:45:29.223Z,977.05
2017-06-22T06:46:31.574Z,977.05
2017-06-22T06:47:33.934Z,977.02
2017-06-22T06:48:36.300Z,977.02
2017-06-22T06:49:38.652Z,976.98
2017-06-22T06:50:41.604Z,977.02
2017-06-22T06:51:43.954Z,976.97
2017-06-22T06:52:46.300Z,976.98
2017-06-22T06:53:48.665Z,976.98
2017-06-22T06:54:51.016Z,976.95
2017-06-22T06:55:54.067Z,976.89
2017-06-22T06:56:56.414Z,976.89
2017-06-22T06:57:58.781Z,976.85
2017-06-22T06:59:01.141Z,976.84
2017-06-22T07:00:03.489Z,976.83
2017-06-22T07:01:06.442Z,976.81
2017-06-22T07:02:08.799Z,976.84
2017-06-22T07:03:11.151Z,976.83
2017-06-22T07:04:13.507Z,976.83
2017-06-22T07:05:15.862Z,976.83
2017-06-22T07:06:18.813Z,976.84
2017-06-22T07:07:21.170Z,976.81
2017-06-22T07:08:23.519Z,976.81
2017-06-22T07:09:25.882Z,976.80
2017-06-22T07:10:28.235Z,976.81
2017-06-22T07:11:31.338Z,976.79
2017-06-22T07:12:33.692Z,976.73
2017-06-22T07:13:36.038Z,976.68
2017-06-22T07:14:38.402Z,976.69
2017-06-22T07:15:40.757Z,976.62
2017-06-22T07:16:43.855Z,976.63
2017-06-22T07:17:46.211Z,976.64
2017-06-22T07:18:48.556Z,976.63
2017-06-22T07:19:50.911Z,976.63
2017-06-22T07:20:53.271Z,976.61
2017-06-22T07:21:56.324Z,976.61
2017-06-22T07:22:58.680Z,976.61
2017-06-22T07:24:01.039Z,976.55
2017-06-22T07:25:03.386Z,976.58
2017-06-22T07:26:05.746Z,976.59
2017-06-22T07:27:08.853Z,976.60
2017-06-22T07:28:11.226Z,976.56
2017-06-22T07:29:13.566Z,976.58
2017-06-22T07:30:15.916Z,976.55
2017-06-22T07:31:18.265Z,976.53
2017-06-22T07:32:21.219Z,976.52
2017-06-22T07:33:23.580Z,976.50
2017-06-22T07:34:25.943Z,976.53
2017-06-22T07:35:28.296Z,976.51
2017-06-22T07:36:30.645Z,976.50
2017-06-22T07:37:33.554Z,976.48
2017-06-22T07:38:35.909Z,976.46
2017-06-22T07:39:38.281Z,976.50
2017-06-22T07:40:40.634Z,976.46
2017-06-22T07:41:42.985Z,976.47
2017-06-22T07:42:45.934Z,976.45
2017-06-22T07:43:48.299Z,976.41
2017-06-22T07:44:50.655Z,976.45
2017-06-22T07:45:53.003Z,976.47
2017-06-22T07:46:55.353Z,976.43
2017-06-22T07:47:58.461Z,976.47
2017-06-22T07:49:00.812Z,976.45
2017-06-22T07:50:03.163Z,976.43
2017-06-22T07:51:05.513Z,976.46
2017-06-22T07:52:07.866Z,976.42
2017-06-22T07:53:10.976Z,976.42
2017-06-22T07:54:13.324Z,976.44
2017-06-22T07:55:15.680Z,976.41
2017-06-22T07:56:18.035Z,976.45
2017-06-22T07:57:20.393Z,976.45
2017-06-22T07:58:23.464Z,976.48
2017-06-22T07:59:25.809Z,976.46
2017-06-22T08:00:28.160Z,976.42
2017-06-22T08:01:30.522Z,976.50
2017-06-22T08:02:32.878Z,976.42
2017-06-22T08:03:35.974Z,976.41
2017-06-22T08:04:38.325Z,976.39
2017-06-22T08:05:40.676Z,976.41
2017-06-22T08:06:43.038Z,976.34
2017-06-22T08:07:45.591Z,976.40
2017-06-22T08:08:48.653Z,976.35
2017-06-22T08:09:50.998Z,976.34
2017-06-22T08:10:53.363Z,976.34
2017-06-22T08:11:55.710Z,976.34
2017-06-22T08:12:58.063Z,976.31
2017-06-22T08:14:01.125Z,976.32
2017-06-22T08:15:03.475Z,976.29
2017-06-22T08:16:05.838Z,976.26
2017-06-22T08:17:08.188Z,976.27
2017-06-22T08:18:10.541Z,976.29
2017-06-22T08:19:13.615Z,976.30
2017-06-22T08:20:15.952Z,976.28
2017-06-22T08:21:18.302Z,976.28
2017-06-22T08:22:20.659Z,976.27
2017-06-22T08:23:23.015Z,976.32
2017-06-22T08:24:26.115Z,976.28
2017-06-22T08:25:28.482Z,976.30
2017-06-22T08:26:30.839Z,976.31
2017-06-22T08:27:33.186Z,976.30
2017-06-22T08:28:35.542Z,976.32
2017-06-22T08:29:38.593Z,976.31
2017-06-22T08:30:40.947Z,976.34
2017-06-22T08:31:43.297Z,976.35
2017-06-22T08:32:45.662Z,976.33
2017-06-22T08:33:48.009Z,976.34
2017-06-22T08:34:50.917Z,976.29
2017-06-22T08:35:53.266Z,976.34
2017-06-22T08:36:55.624Z,976.34
2017-06-22T08:37:57.983Z,976.32
2017-06-22T08:39:00.338Z,976.32
2017-06-22T08:40:03.286Z,976.34
2017-06-22T08:41:05.645Z,976.37
2017-06-22T08:42:07.993Z,976.34
2017-06-22T08:43:10.343Z,976.33
2017-06-22T08:44:12.703Z,976.34
2017-06-22T08:45:15.805Z,976.37
2017-06-22T08:46:18.153Z,976.35
2017-06-22T08:47:20.505Z,976.37
2017-06-22T08:48:22.861Z,976.36
2017-06-22T08:49:25.216Z,976.38
2017-06-22T08:50:28.273Z,976.32
2017-06-22T08:51:30.620Z,976.30
2017-06-22T08:52:32.975Z,976.31
2017-06-22T08:53:35.327Z,976.31
2017-06-22T08:54:37.683Z,976.31
2017-06-22T08:55:40.580Z,976.33
2017-06-22T08:56:42.939Z,976.31
2017-06-22T08:57:45.292Z,976.29
2017-06-22T08:58:47.652Z,976.29
2017-06-22T08:59:50.004Z,976.32
2017-06-22T09:00:52.964Z,976.29
2017-06-22T09:01:55.314Z,976.28
2017-06-22T09:02:57.661Z,976.30
2017-06-22T09:04:00.008Z,976.30
2017-06-22T09:05:02.367Z,976.29
2017-06-22T09:06:05.428Z,976.28
2017-06-22T09:07:07.786Z,976.27
2017-06-22T09:08:10.137Z,976.23
2017-06-22T09:09:12.490Z,976.29
2017-06-22T09:10:14.843Z,976.30
2017-06-22T09:11:18.399Z,976.26
2017-06-22T09:12:20.754Z,976.22
2017-06-22T09:13:23.113Z,976.22
2017-06-22T09:14:25.475Z,976.21
2017-06-22T09:15:27.831Z,976.23
2017-06-22T09:16:30.871Z,976.21
2017-06-22T09:17:33.222Z,976.22
2017-06-22T09:18:35.578Z,976.22
2017-06-22T09:19:37.940Z,976.23
2017-06-22T09:20:40.294Z,976.21
2017-06-22T09:21:43.250Z,976.23
2017-06-22T09:22:45.610Z,976.19
2017-06-22T09:23:47.962Z,976.17
2017-06-22T09:24:50.316Z,976.18
2017-06-22T09:25:52.671Z,976.15
2017-06-22T09:26:55.578Z,976.18
2017-06-22T09:27:57.940Z,976.23
2017-06-22T09:29:00.300Z,976.24
2017-06-22T09:30:02.659Z,976.20
2017-06-22T09:31:05.004Z,976.25
2017-06-22T09:32:08.056Z,976.24
2017-06-22T09:33:10.407Z,976.27
2017-06-22T09:34:12.764Z,976.24
2017-06-22T09:35:15.133Z,976.23
2017-06-22T09:36:17.481Z,976.25
2017-06-22T09:37:20.438Z,976.25
2017-06-22T09:38:22.788Z,976.29
2017-06-22T09:39:25.150Z,976.28
2017-06-22T09:40:27.501Z,976.19
2017-06-22T09:41:29.854Z,976.22
2017-06-22T09:42:32.762Z,976.21
2017-06-22T09:43:35.116Z,976.24
2017-06-22T09:44:37.474Z,976.16
2017-06-22T09:45:39.831Z,976.19
2017-06-22T09:46:42.174Z,976.21
2017-06-22T09:47:45.274Z,976.14
2017-06-22T09:48:47.625Z,976.16
2017-06-22T09:49:50.186Z,976.20
2017-06-22T09:50:52.548Z,976.17
2017-06-22T09:51:54.901Z,976.16
2017-06-22T09:52:57.856Z,976.21
2017-06-22T09:54:00.226Z,976.23
2017-06-22T09:55:02.572Z,976.23
2017-06-22T09:56:04.923Z,976.22
2017-06-22T09:57:07.279Z,976.23
2017-06-22T09:58:10.389Z,976.25
2017-06-22T09:59:12.732Z,976.21
2017-06-22T10:00:15.097Z,976.29
2017-06-22T10:01:17.444Z,976.32
2017-06-22T10:02:19.793Z,976.30
2017-06-22T10:03:22.906Z,976.35
2017-06-22T10:04:25.259Z,976.37
2017-06-22T10:05:27.611Z,976.39
2017-06-22T10:06:29.963Z,976.38
2017-06-22T10:07:32.322Z,976.36
2017-06-22T10:08:35.279Z,976.41
2017-06-22T10:09:37.631Z,976.41
2017-06-22T10:10:39.988Z,976.39
2017-06-22T10:11:42.348Z,976.35
2017-06-22T10:12:44.702Z,976.37
2017-06-22T10:13:47.764Z,976.36
2017-06-22T10:14:50.113Z,976.35
2017-06-22T10:15:52.460Z,976.39
2017-06-22T10:16:54.824Z,976.39
2017-06-22T10:17:57.163Z,976.42
2017-06-22T10:19:00.070Z,976.39
2017-06-22T10:20:02.411Z,976.38
2017-06-22T10:21:04.771Z,976.41
2017-06-22T10:22:07.119Z,976.38
2017-06-22T10:23:09.473Z,976.40
2017-06-22T10:24:12.523Z,976.37
2017-06-22T10:25:14.877Z,976.39
2017-06-22T10:26:17.231Z,976.42
2017-06-22T10:27:19.580Z,976.37
2017-06-22T10:28:21.930Z,976.41
2017-06-22T10:29:24.891Z,976.41
2017-06-22T10:30:27.246Z,976.41
2017-06-22T10:31:29.597Z,976.42
2017-06-22T10:32:31.951Z,976.38
2017-06-22T10:33:34.306Z,976.40
2017-06-22T10:34:37.383Z,976.38
2017-06-22T10:35:39.733Z,976.31
2017-06-22T10:36:42.075Z,976.33
2017-06-22T10:37:44.435Z,976.36
2017-06-22T10:38:46.790Z,976.34
2017-06-22T10:39:49.746Z,976.36
2017-06-22T10:40:52.108Z,976.33
2017-06-22T10:41:54.457Z,976.35
2017-06-22T10:42:56.816Z,976.32
2017-06-22T10:43:59.171Z,976.32
2017-06-22T10:45:02.283Z,976.31
2017-06-22T10:46:04.629Z,976.35
2017-06-22T10:47:06.991Z,976.30
2017-06-22T10:48:09.342Z,976.35
2017-06-22T10:49:11.690Z,976.31
2017-06-22T10:50:14.905Z,976.34
2017-06-22T10:51:17.257Z,976.36
2017-06-22T10:52:19.620Z,976.35
2017-06-22T10:53:21.963Z,976.34
2017-06-22T10:54:24.318Z,976.33
2017-06-22T10:55:27.277Z,976.33
2017-06-22T10:56:29.623Z,976.30
2017-06-22T10:57:31.986Z,976.36
2017-06-22T10:58:34.339Z,976.36
2017-06-22T10:59:36.689Z,976.40
2017-06-22T11:00:39.693Z,976.43
2017-06-22T11:01:42.043Z,976.39
2017-06-22T11:02:44.404Z,976.47
2017-06-22T11:03:46.757Z,976.43
2017-06-22T11:04:49.109Z,976.45
2017-06-22T11:05:52.211Z,976.45
2017-06-22T11:06:54.568Z,976.48
2017-06-22T11:07:56.925Z,976.47
2017-06-22T11:08:59.278Z,976.53
2017-06-22T11:10:01.633Z,976.54
2017-06-22T11:11:04.636Z,976.54
2017-06-22T11:12:06.998Z,976.54
2017-06-22T11:13:09.355Z,976.52
2017-06-22T11:14:11.714Z,976.58
2017-06-22T11:15:14.068Z,976.58
2017-06-22T11:16:17.012Z,976.56
2017-06-22T11:17:19.367Z,976.57
2017-06-22T11:18:21.720Z,976.64
2017-06-22T11:19:24.069Z,976.64
2017-06-22T11:20:26.435Z,976.67
2017-06-22T11:21:31.293Z,976.69
2017-06-22T11:22:33.644Z,976.73
2017-06-22T11:23:36.000Z,976.74
2017-06-22T11:24:38.353Z,976.73
2017-06-22T11:25:40.704Z,976.74
2017-06-22T11:26:43.673Z,976.72
2017-06-22T11:27:46.021Z,976.75
2017-06-22T11:28:48.383Z,976.74
2017-06-22T11:29:50.741Z,976.70
2017-06-22T11:30:53.089Z,976.77
2017-06-22T11:31:56.195Z,976.78
2017-06-22T11:32:58.539Z,976.78
2017-06-22T11:34:00.902Z,976.79
2017-06-22T11:35:03.249Z,976.82
2017-06-22T11:36:05.608Z,976.83
2017-06-22T11:37:08.719Z,976.90
2017-06-22T11:38:11.068Z,976.84
2017-06-22T11:39:13.415Z,976.86
2017-06-22T11:40:15.783Z,976.87
2017-06-22T11:41:18.138Z,976.83
2017-06-22T11:42:21.194Z,976.85
2017-06-22T11:43:23.549Z,976.88
2017-06-22T11:44:25.907Z,976.85
2017-06-22T11:45:28.259Z,976.91
2017-06-22T11:46:30.608Z,976.88
2017-06-22T11:47:33.716Z,976.91
2017-06-22T11:48:36.079Z,976.91
2017-06-22T11:49:38.434Z,976.94
2017-06-22T11:50:40.795Z,976.95
2017-06-22T11:51:43.155Z,976.95
2017-06-22T11:52:46.211Z,976.94
2017-06-22T11:53:48.567Z,976.98
2017-06-22T11:54:50.920Z,976.95
2017-06-22T11:55:53.280Z,976.99
2017-06-22T11:56:55.643Z,976.96
2017-06-22T11:57:58.800Z,976.99
2017-06-22T11:59:01.163Z,976.95
2017-06-22T12:00:03.512Z,976.98
2017-06-22T12:01:05.867Z,976.98
2017-06-22T12:02:08.226Z,977.01
2017-06-22T12:03:11.148Z,976.99
2017-06-22T12:04:13.494Z,976.99
2017-06-22T12:05:15.853Z,976.99
2017-06-22T12:06:18.225Z,977.05
2017-06-22T12:07:20.576Z,977.03
2017-06-22T12:08:23.634Z,977.04
2017-06-22T12:09:25.990Z,977.08
2017-06-22T12:10:28.343Z,977.05
2017-06-22T12:11:30.701Z,977.06
2017-06-22T12:12:33.056Z,977.02
2017-06-22T12:13:36.107Z,977.03
2017-06-22T12:14:38.466Z,977.03
2017-06-22T12:15:40.820Z,977.09
2017-06-22T12:16:43.176Z,977.09
2017-06-22T12:17:45.531Z,977.07
2017-06-22T12:18:48.589Z,977.07
2017-06-22T12:19:50.948Z,977.12
2017-06-22T12:20:53.306Z,977.13
2017-06-22T12:21:55.665Z,977.15
2017-06-22T12:22:58.017Z,977.12
2017-06-22T12:24:00.972Z,977.15
2017-06-22T12:25:03.333Z,977.12
2017-06-22T12:26:05.687Z,977.17
2017-06-22T12:27:08.045Z,977.18
2017-06-22T12:28:10.405Z,977.17
2017-06-22T12:29:13.369Z,977.21
2017-06-22T12:30:15.719Z,977.17
2017-06-22T12:31:18.079Z,977.20
2017-06-22T12:32:20.454Z,977.16
2017-06-22T12:33:22.817Z,977.25
2017-06-22T12:34:25.879Z,977.19
2017-06-22T12:35:28.232Z,977.24
2017-06-22T12:36:30.590Z,977.32
2017-06-22T12:37:32.957Z,977.35
2017-06-22T12:38:35.301Z,977.35
2017-06-22T12:39:38.214Z,977.46
2017-06-22T12:40:40.578Z,977.44
2017-06-22T12:41:42.941Z,977.44
2017-06-22T12:42:45.290Z,977.45
2017-06-22T12:43:47.654Z,977.44
2017-06-22T12:44:50.612Z,977.41
2017-06-22T12:45:52.987Z,977.46
2017-06-22T12:46:55.344Z,977.50
2017-06-22T12:47:57.708Z,977.47
2017-06-22T12:49:00.070Z,977.47
2017-06-22T12:50:03.130Z,977.49
2017-06-22T12:51:05.489Z,977.55
2017-06-22T12:52:07.849Z,977.56
2017-06-22T12:53:10.210Z,977.54
2017-06-22T12:54:12.562Z,977.53
2017-06-22T12:55:15.521Z,977.53
2017-06-22T12:56:17.887Z,977.52
2017-06-22T12:57:20.246Z,977.54
2017-06-22T12:58:22.601Z,977.51
2017-06-22T12:59:24.964Z,977.49
2017-06-22T13:00:27.928Z,977.52